sensor_id;sensor_type;location;lat;lon;timestamp;temperature;humidity
65989;HTU21D;53592;51.402;6.054;2023-04-26T00:01:19;6.22;69.21
65989;HTU21D;53592;51.402;6.054;2023-04-26T00:03:46;6.15;69.50
65989;HTU21D;53592;51.402;6.054;2023-04-26T00:06:11;6.09;69.76
65989;HTU21D;53592;51.402;6.054;2023-04-26T00:08:39;5.99;70.25
65989;HTU21D;53592;51.402;6.054;2023-04-26T00:11:05;5.93;70.41
65989;HTU21D;53592;51.402;6.054;2023-04-26T00:13:31;5.90;70.29
65989;HTU21D;53592;51.402;6.054;2023-04-26T00:15:56;5.85;70.36
65989;HTU21D;53592;51.402;6.054;2023-04-26T00:18:22;5.82;70.39
65989;HTU21D;53592;51.402;6.054;2023-04-26T00:20:47;5.79;70.47
65989;HTU21D;53592;51.402;6.054;2023-04-26T00:23:12;5.75;70.77
65989;HTU21D;53592;51.402;6.054;2023-04-26T00:25:38;5.69;70.97
65989;HTU21D;53592;51.402;6.054;2023-04-26T00:28:04;5.65;71.31
65989;HTU21D;53592;51.402;6.054;2023-04-26T00:30:29;5.66;71.17
65989;HTU21D;53592;51.402;6.054;2023-04-26T00:32:55;5.60;71.01
65989;HTU21D;53592;51.402;6.054;2023-04-26T00:35:20;5.52;71.17
65989;HTU21D;53592;51.402;6.054;2023-04-26T00:37:46;5.46;71.90
65989;HTU21D;53592;51.402;6.054;2023-04-26T00:40:12;5.38;72.35
65989;HTU21D;53592;51.402;6.054;2023-04-26T00:42:41;5.31;72.80
65989;HTU21D;53592;51.402;6.054;2023-04-26T00:45:06;5.27;73.07
65989;HTU21D;53592;51.402;6.054;2023-04-26T00:47:32;5.23;73.34
65989;HTU21D;53592;51.402;6.054;2023-04-26T00:49:59;5.16;73.80
65989;HTU21D;53592;51.402;6.054;2023-04-26T00:52:26;5.09;74.15
65989;HTU21D;53592;51.402;6.054;2023-04-26T00:54:53;5.02;74.51
65989;HTU21D;53592;51.402;6.054;2023-04-26T00:57:19;5.01;74.69
65989;HTU21D;53592;51.402;6.054;2023-04-26T00:59:45;5.06;74.21
65989;HTU21D;53592;51.402;6.054;2023-04-26T01:02:11;5.06;73.79
65989;HTU21D;53592;51.402;6.054;2023-04-26T01:04:37;5.06;73.55
65989;HTU21D;53592;51.402;6.054;2023-04-26T01:07:03;5.03;73.44
65989;HTU21D;53592;51.402;6.054;2023-04-26T01:09:31;5.02;73.51
65989;HTU21D;53592;51.402;6.054;2023-04-26T01:11:56;4.98;73.67
65989;HTU21D;53592;51.402;6.054;2023-04-26T01:14:24;4.95;74.03
65989;HTU21D;53592;51.402;6.054;2023-04-26T01:16:49;4.96;74.13
65989;HTU21D;53592;51.402;6.054;2023-04-26T01:19:16;4.95;74.25
65989;HTU21D;53592;51.402;6.054;2023-04-26T01:21:42;4.92;74.34
65989;HTU21D;53592;51.402;6.054;2023-04-26T01:24:10;4.87;74.67
65989;HTU21D;53592;51.402;6.054;2023-04-26T01:26:36;4.84;74.78
65989;HTU21D;53592;51.402;6.054;2023-04-26T01:29:19;4.87;74.51
65989;HTU21D;53592;51.402;6.054;2023-04-26T01:31:46;4.89;74.33
65989;HTU21D;53592;51.402;6.054;2023-04-26T01:34:13;4.87;74.31
65989;HTU21D;53592;51.402;6.054;2023-04-26T01:36:38;4.84;74.28
65989;HTU21D;53592;51.402;6.054;2023-04-26T01:39:04;4.79;74.38
65989;HTU21D;53592;51.402;6.054;2023-04-26T01:41:30;4.78;74.41
65989;HTU21D;53592;51.402;6.054;2023-04-26T01:43:56;4.78;74.71
65989;HTU21D;53592;51.402;6.054;2023-04-26T01:46:22;4.79;74.42
65989;HTU21D;53592;51.402;6.054;2023-04-26T01:48:47;4.86;74.06
65989;HTU21D;53592;51.402;6.054;2023-04-26T01:51:13;4.88;73.92
65989;HTU21D;53592;51.402;6.054;2023-04-26T01:53:38;4.87;73.81
65989;HTU21D;53592;51.402;6.054;2023-04-26T01:56:04;4.86;73.72
65989;HTU21D;53592;51.402;6.054;2023-04-26T01:58:30;4.91;73.41
65989;HTU21D;53592;51.402;6.054;2023-04-26T02:01:03;4.87;73.40
65989;HTU21D;53592;51.402;6.054;2023-04-26T02:03:29;4.83;73.64
65989;HTU21D;53592;51.402;6.054;2023-04-26T02:05:54;4.77;74.12
65989;HTU21D;53592;51.402;6.054;2023-04-26T02:08:20;4.68;74.68
65989;HTU21D;53592;51.402;6.054;2023-04-26T02:10:45;4.66;74.57
65989;HTU21D;53592;51.402;6.054;2023-04-26T02:13:11;4.72;74.31
65989;HTU21D;53592;51.402;6.054;2023-04-26T02:15:36;4.74;74.19
65989;HTU21D;53592;51.402;6.054;2023-04-26T02:18:02;4.76;74.26
65989;HTU21D;53592;51.402;6.054;2023-04-26T02:20:27;4.74;74.35
65989;HTU21D;53592;51.402;6.054;2023-04-26T02:22:53;4.75;74.20
65989;HTU21D;53592;51.402;6.054;2023-04-26T02:25:18;4.81;73.93
65989;HTU21D;53592;51.402;6.054;2023-04-26T02:27:44;4.90;73.46
65989;HTU21D;53592;51.402;6.054;2023-04-26T02:30:09;4.88;73.41
65989;HTU21D;53592;51.402;6.054;2023-04-26T02:32:35;4.84;73.38
65989;HTU21D;53592;51.402;6.054;2023-04-26T02:35:01;4.78;73.41
65989;HTU21D;53592;51.402;6.054;2023-04-26T02:37:26;4.74;73.71
65989;HTU21D;53592;51.402;6.054;2023-04-26T02:39:52;4.69;73.99
65989;HTU21D;53592;51.402;6.054;2023-04-26T02:42:17;4.71;73.99
65989;HTU21D;53592;51.402;6.054;2023-04-26T02:44:43;4.72;73.98
65989;HTU21D;53592;51.402;6.054;2023-04-26T02:47:09;4.71;73.93
65989;HTU21D;53592;51.402;6.054;2023-04-26T02:49:35;4.73;73.76
65989;HTU21D;53592;51.402;6.054;2023-04-26T02:52:00;4.76;73.72
65989;HTU21D;53592;51.402;6.054;2023-04-26T02:54:26;4.79;73.60
65989;HTU21D;53592;51.402;6.054;2023-04-26T02:56:51;4.83;73.43
65989;HTU21D;53592;51.402;6.054;2023-04-26T02:59:17;4.80;73.44
65989;HTU21D;53592;51.402;6.054;2023-04-26T03:01:42;4.75;73.59
65989;HTU21D;53592;51.402;6.054;2023-04-26T03:04:08;4.69;73.78
65989;HTU21D;53592;51.402;6.054;2023-04-26T03:06:33;4.65;73.96
65989;HTU21D;53592;51.402;6.054;2023-04-26T03:08:59;4.65;73.87
65989;HTU21D;53592;51.402;6.054;2023-04-26T03:11:25;4.64;73.75
65989;HTU21D;53592;51.402;6.054;2023-04-26T03:13:50;4.61;73.71
65989;HTU21D;53592;51.402;6.054;2023-04-26T03:16:18;4.53;74.02
65989;HTU21D;53592;51.402;6.054;2023-04-26T03:18:45;4.44;74.60
65989;HTU21D;53592;51.402;6.054;2023-04-26T03:21:10;4.34;75.09
65989;HTU21D;53592;51.402;6.054;2023-04-26T03:23:37;4.24;75.43
65989;HTU21D;53592;51.402;6.054;2023-04-26T03:26:02;4.20;75.34
65989;HTU21D;53592;51.402;6.054;2023-04-26T03:28:28;4.18;75.41
65989;HTU21D;53592;51.402;6.054;2023-04-26T03:30:53;4.17;75.24
65989;HTU21D;53592;51.402;6.054;2023-04-26T03:33:19;4.15;75.10
65989;HTU21D;53592;51.402;6.054;2023-04-26T03:35:45;4.07;75.60
65989;HTU21D;53592;51.402;6.054;2023-04-26T03:38:10;4.03;75.74
65989;HTU21D;53592;51.402;6.054;2023-04-26T03:40:36;4.03;75.65
65989;HTU21D;53592;51.402;6.054;2023-04-26T03:43:01;4.05;75.44
65989;HTU21D;53592;51.402;6.054;2023-04-26T03:45:27;4.08;75.35
65989;HTU21D;53592;51.402;6.054;2023-04-26T03:47:52;4.10;75.21
65989;HTU21D;53592;51.402;6.054;2023-04-26T03:50:19;4.10;74.94
65989;HTU21D;53592;51.402;6.054;2023-04-26T03:52:44;4.12;74.80
65989;HTU21D;53592;51.402;6.054;2023-04-26T03:55:10;4.08;74.94
65989;HTU21D;53592;51.402;6.054;2023-04-26T03:57:36;4.04;75.29
65989;HTU21D;53592;51.402;6.054;2023-04-26T04:00:03;4.03;75.47
65989;HTU21D;53592;51.402;6.054;2023-04-26T04:02:36;4.01;75.64
65989;HTU21D;53592;51.402;6.054;2023-04-26T04:05:01;4.05;75.41
65989;HTU21D;53592;51.402;6.054;2023-04-26T04:07:27;4.08;75.19
65989;HTU21D;53592;51.402;6.054;2023-04-26T04:09:52;4.16;74.74
65989;HTU21D;53592;51.402;6.054;2023-04-26T04:12:18;4.19;74.31
65989;HTU21D;53592;51.402;6.054;2023-04-26T04:14:43;4.12;74.63
65989;HTU21D;53592;51.402;6.054;2023-04-26T04:17:08;4.05;74.84
65989;HTU21D;53592;51.402;6.054;2023-04-26T04:19:34;4.00;75.25
65989;HTU21D;53592;51.402;6.054;2023-04-26T04:22:00;3.92;75.75
65989;HTU21D;53592;51.402;6.054;2023-04-26T04:24:25;3.88;76.08
65989;HTU21D;53592;51.402;6.054;2023-04-26T04:26:51;3.79;76.51
65989;HTU21D;53592;51.402;6.054;2023-04-26T04:29:16;3.74;76.90
65989;HTU21D;53592;51.402;6.054;2023-04-26T04:31:42;3.68;77.15
65989;HTU21D;53592;51.402;6.054;2023-04-26T04:34:07;3.63;77.63
65989;HTU21D;53592;51.402;6.054;2023-04-26T04:36:33;3.62;77.81
65989;HTU21D;53592;51.402;6.054;2023-04-26T04:38:58;3.63;77.63
65989;HTU21D;53592;51.402;6.054;2023-04-26T04:41:24;3.65;77.63
65989;HTU21D;53592;51.402;6.054;2023-04-26T04:43:49;3.69;77.53
65989;HTU21D;53592;51.402;6.054;2023-04-26T04:46:15;3.69;77.56
65989;HTU21D;53592;51.402;6.054;2023-04-26T04:48:41;3.72;77.61
65989;HTU21D;53592;51.402;6.054;2023-04-26T04:51:07;3.69;77.53
65989;HTU21D;53592;51.402;6.054;2023-04-26T04:53:33;3.64;77.44
65989;HTU21D;53592;51.402;6.054;2023-04-26T04:55:58;3.62;77.67
65989;HTU21D;53592;51.402;6.054;2023-04-26T04:58:24;3.64;77.93
65989;HTU21D;53592;51.402;6.054;2023-04-26T05:00:50;3.69;78.14
65989;HTU21D;53592;51.402;6.054;2023-04-26T05:03:15;3.75;78.27
65989;HTU21D;53592;51.402;6.054;2023-04-26T05:05:41;3.83;78.19
65989;HTU21D;53592;51.402;6.054;2023-04-26T05:08:06;3.90;77.95
65989;HTU21D;53592;51.402;6.054;2023-04-26T05:10:33;3.95;78.08
65989;HTU21D;53592;51.402;6.054;2023-04-26T05:12:59;4.04;78.77
65989;HTU21D;53592;51.402;6.054;2023-04-26T05:15:25;4.16;79.40
65989;HTU21D;53592;51.402;6.054;2023-04-26T05:17:50;4.29;80.09
65989;HTU21D;53592;51.402;6.054;2023-04-26T05:20:16;4.42;80.23
65989;HTU21D;53592;51.402;6.054;2023-04-26T05:22:42;4.58;80.48
65989;HTU21D;53592;51.402;6.054;2023-04-26T05:25:08;4.75;79.93
65989;HTU21D;53592;51.402;6.054;2023-04-26T05:27:35;4.88;79.54
65989;HTU21D;53592;51.402;6.054;2023-04-26T05:30:03;5.05;79.41
65989;HTU21D;53592;51.402;6.054;2023-04-26T05:32:29;5.27;79.01
65989;HTU21D;53592;51.402;6.054;2023-04-26T05:34:54;5.53;79.37
65989;HTU21D;53592;51.402;6.054;2023-04-26T05:37:20;5.83;78.94
65989;HTU21D;53592;51.402;6.054;2023-04-26T05:39:45;6.10;78.32
65989;HTU21D;53592;51.402;6.054;2023-04-26T05:42:11;6.42;77.40
65989;HTU21D;53592;51.402;6.054;2023-04-26T05:44:36;6.78;76.69
65989;HTU21D;53592;51.402;6.054;2023-04-26T05:47:02;7.10;75.54
65989;HTU21D;53592;51.402;6.054;2023-04-26T05:49:27;7.44;74.06
65989;HTU21D;53592;51.402;6.054;2023-04-26T05:51:53;7.75;72.66
65989;HTU21D;53592;51.402;6.054;2023-04-26T05:54:18;8.11;71.25
65989;HTU21D;53592;51.402;6.054;2023-04-26T05:56:43;8.37;69.81
65989;HTU21D;53592;51.402;6.054;2023-04-26T05:59:09;8.47;69.15
65989;HTU21D;53592;51.402;6.054;2023-04-26T06:01:36;8.61;68.44
65989;HTU21D;53592;51.402;6.054;2023-04-26T06:04:01;8.85;68.45
65989;HTU21D;53592;51.402;6.054;2023-04-26T06:06:27;9.08;67.34
65989;HTU21D;53592;51.402;6.054;2023-04-26T06:08:53;9.18;66.75
65989;HTU21D;53592;51.402;6.054;2023-04-26T06:11:18;9.34;65.87
65989;HTU21D;53592;51.402;6.054;2023-04-26T06:13:43;9.36;65.46
65989;HTU21D;53592;51.402;6.054;2023-04-26T06:16:09;9.32;65.29
65989;HTU21D;53592;51.402;6.054;2023-04-26T06:18:34;9.24;65.49
65989;HTU21D;53592;51.402;6.054;2023-04-26T06:21:00;9.16;65.78
65989;HTU21D;53592;51.402;6.054;2023-04-26T06:23:26;9.17;66.59
65989;HTU21D;53592;51.402;6.054;2023-04-26T06:25:51;9.34;66.81
65989;HTU21D;53592;51.402;6.054;2023-04-26T06:28:17;9.61;66.13
65989;HTU21D;53592;51.402;6.054;2023-04-26T06:30:42;9.93;65.49
65989;HTU21D;53592;51.402;6.054;2023-04-26T06:33:07;10.28;64.56
65989;HTU21D;53592;51.402;6.054;2023-04-26T06:35:39;10.56;63.71
65989;HTU21D;53592;51.402;6.054;2023-04-26T06:38:04;10.70;63.20
65989;HTU21D;53592;51.402;6.054;2023-04-26T06:40:30;10.83;62.75
65989;HTU21D;53592;51.402;6.054;2023-04-26T06:42:55;10.96;62.59
65989;HTU21D;53592;51.402;6.054;2023-04-26T06:45:21;11.22;62.10
65989;HTU21D;53592;51.402;6.054;2023-04-26T06:47:47;11.52;62.30
65989;HTU21D;53592;51.402;6.054;2023-04-26T06:50:15;11.91;61.03
65989;HTU21D;53592;51.402;6.054;2023-04-26T06:52:40;12.23;59.90
65989;HTU21D;53592;51.402;6.054;2023-04-26T06:55:06;12.33;59.34
65989;HTU21D;53592;51.402;6.054;2023-04-26T06:57:32;12.45;58.75
65989;HTU21D;53592;51.402;6.054;2023-04-26T06:59:57;12.49;58.50
65989;HTU21D;53592;51.402;6.054;2023-04-26T07:02:23;12.45;58.41
65989;HTU21D;53592;51.402;6.054;2023-04-26T07:04:49;12.40;57.96
65989;HTU21D;53592;51.402;6.054;2023-04-26T07:07:14;12.22;57.77
65989;HTU21D;53592;51.402;6.054;2023-04-26T07:09:41;12.01;58.45
65989;HTU21D;53592;51.402;6.054;2023-04-26T07:12:07;11.91;59.12
65989;HTU21D;53592;51.402;6.054;2023-04-26T07:14:32;11.92;59.40
65989;HTU21D;53592;51.402;6.054;2023-04-26T07:16:59;11.98;59.22
65989;HTU21D;53592;51.402;6.054;2023-04-26T07:19:25;12.10;58.87
65989;HTU21D;53592;51.402;6.054;2023-04-26T07:21:51;12.12;59.17
65989;HTU21D;53592;51.402;6.054;2023-04-26T07:24:16;12.22;58.93
65989;HTU21D;53592;51.402;6.054;2023-04-26T07:26:42;12.34;57.80
65989;HTU21D;53592;51.402;6.054;2023-04-26T07:29:07;12.25;57.61
65989;HTU21D;53592;51.402;6.054;2023-04-26T07:31:33;12.27;58.95
65989;HTU21D;53592;51.402;6.054;2023-04-26T07:33:58;12.30;58.25
65989;HTU21D;53592;51.402;6.054;2023-04-26T07:36:24;12.25;58.32
65989;HTU21D;53592;51.402;6.054;2023-04-26T07:38:49;12.22;58.18
65989;HTU21D;53592;51.402;6.054;2023-04-26T07:41:15;12.32;58.83
65989;HTU21D;53592;51.402;6.054;2023-04-26T07:43:41;12.33;57.80
65989;HTU21D;53592;51.402;6.054;2023-04-26T07:46:07;12.32;58.06
65989;HTU21D;53592;51.402;6.054;2023-04-26T07:48:32;12.34;57.49
65989;HTU21D;53592;51.402;6.054;2023-04-26T07:51:09;12.42;57.26
65989;HTU21D;53592;51.402;6.054;2023-04-26T07:53:35;12.49;57.06
65989;HTU21D;53592;51.402;6.054;2023-04-26T07:56:03;12.61;56.86
65989;HTU21D;53592;51.402;6.054;2023-04-26T07:58:29;12.64;56.61
65989;HTU21D;53592;51.402;6.054;2023-04-26T08:00:57;12.56;56.42
65989;HTU21D;53592;51.402;6.054;2023-04-26T08:03:23;12.46;56.39
65989;HTU21D;53592;51.402;6.054;2023-04-26T08:05:48;12.45;56.58
65989;HTU21D;53592;51.402;6.054;2023-04-26T08:08:14;12.41;56.15
65989;HTU21D;53592;51.402;6.054;2023-04-26T08:10:40;12.57;57.21
65989;HTU21D;53592;51.402;6.054;2023-04-26T08:13:06;12.69;55.72
65989;HTU21D;53592;51.402;6.054;2023-04-26T08:15:31;12.77;56.00
65989;HTU21D;53592;51.402;6.054;2023-04-26T08:17:57;12.93;54.07
65989;HTU21D;53592;51.402;6.054;2023-04-26T08:20:22;12.91;53.10
65989;HTU21D;53592;51.402;6.054;2023-04-26T08:22:48;12.87;53.07
65989;HTU21D;53592;51.402;6.054;2023-04-26T08:25:14;12.94;53.07
65989;HTU21D;53592;51.402;6.054;2023-04-26T08:27:40;13.14;54.80
65989;HTU21D;53592;51.402;6.054;2023-04-26T08:30:06;13.33;53.79
65989;HTU21D;53592;51.402;6.054;2023-04-26T08:32:31;13.29;52.78
65989;HTU21D;53592;51.402;6.054;2023-04-26T08:34:59;13.16;52.86
65989;HTU21D;53592;51.402;6.054;2023-04-26T08:37:25;13.05;52.53
65989;HTU21D;53592;51.402;6.054;2023-04-26T08:39:50;13.02;52.98
65989;HTU21D;53592;51.402;6.054;2023-04-26T08:42:16;13.08;52.17
65989;HTU21D;53592;51.402;6.054;2023-04-26T08:44:43;12.89;50.47
65989;HTU21D;53592;51.402;6.054;2023-04-26T08:47:17;12.58;51.75
65989;HTU21D;53592;51.402;6.054;2023-04-26T08:49:44;12.35;51.67
65989;HTU21D;53592;51.402;6.054;2023-04-26T08:52:13;12.12;52.04
65989;HTU21D;53592;51.402;6.054;2023-04-26T08:54:42;12.05;52.93
65989;HTU21D;53592;51.402;6.054;2023-04-26T08:57:09;12.15;52.85
65989;HTU21D;53592;51.402;6.054;2023-04-26T08:59:36;12.23;52.59
65989;HTU21D;53592;51.402;6.054;2023-04-26T09:02:04;12.31;52.46
65989;HTU21D;53592;51.402;6.054;2023-04-26T09:04:30;12.40;51.36
65989;HTU21D;53592;51.402;6.054;2023-04-26T09:06:59;12.43;51.75
65989;HTU21D;53592;51.402;6.054;2023-04-26T09:09:27;12.44;50.76
65989;HTU21D;53592;51.402;6.054;2023-04-26T09:12:00;12.45;50.33
65989;HTU21D;53592;51.402;6.054;2023-04-26T09:14:27;12.43;51.11
65989;HTU21D;53592;51.402;6.054;2023-04-26T09:16:53;12.55;49.61
65989;HTU21D;53592;51.402;6.054;2023-04-26T09:19:34;12.64;47.95
65989;HTU21D;53592;51.402;6.054;2023-04-26T09:22:02;12.76;47.86
65989;HTU21D;53592;51.402;6.054;2023-04-26T09:24:28;12.74;47.58
65989;HTU21D;53592;51.402;6.054;2023-04-26T09:27:10;12.93;48.13
65989;HTU21D;53592;51.402;6.054;2023-04-26T09:29:36;13.06;48.13
65989;HTU21D;53592;51.402;6.054;2023-04-26T09:32:02;13.04;47.16
65989;HTU21D;53592;51.402;6.054;2023-04-26T09:34:28;12.91;46.92
65989;HTU21D;53592;51.402;6.054;2023-04-26T09:36:55;12.96;47.17
65989;HTU21D;53592;51.402;6.054;2023-04-26T09:39:36;13.01;47.57
65989;HTU21D;53592;51.402;6.054;2023-04-26T09:42:07;12.95;48.64
65989;HTU21D;53592;51.402;6.054;2023-04-26T09:44:34;13.08;49.23
65989;HTU21D;53592;51.402;6.054;2023-04-26T09:47:10;13.23;48.74
65989;HTU21D;53592;51.402;6.054;2023-04-26T09:52:11;13.64;47.06
65989;HTU21D;53592;51.402;6.054;2023-04-26T09:54:51;13.92;48.60
65989;HTU21D;53592;51.402;6.054;2023-04-26T09:57:19;14.35;48.11
65989;HTU21D;53592;51.402;6.054;2023-04-26T09:59:50;14.57;45.94
65989;HTU21D;53592;51.402;6.054;2023-04-26T10:02:21;14.84;45.54
65989;HTU21D;53592;51.402;6.054;2023-04-26T10:04:49;15.07;44.92
65989;HTU21D;53592;51.402;6.054;2023-04-26T10:07:17;15.25;43.19
65989;HTU21D;53592;51.402;6.054;2023-04-26T10:09:43;15.32;42.12
65989;HTU21D;53592;51.402;6.054;2023-04-26T10:12:10;15.31;42.16
65989;HTU21D;53592;51.402;6.054;2023-04-26T10:14:37;15.34;41.38
65989;HTU21D;53592;51.402;6.054;2023-04-26T10:17:04;15.37;43.24
65989;HTU21D;53592;51.402;6.054;2023-04-26T10:19:32;15.41;40.56
65989;HTU21D;53592;51.402;6.054;2023-04-26T10:22:08;15.19;41.04
65989;HTU21D;53592;51.402;6.054;2023-04-26T10:24:35;15.03;39.63
65989;HTU21D;53592;51.402;6.054;2023-04-26T10:27:01;14.93;40.13
65989;HTU21D;53592;51.402;6.054;2023-04-26T10:30:04;14.84;41.56
65989;HTU21D;53592;51.402;6.054;2023-04-26T10:32:31;14.69;42.55
65989;HTU21D;53592;51.402;6.054;2023-04-26T10:35:13;14.60;43.20
65989;HTU21D;53592;51.402;6.054;2023-04-26T10:40:33;14.58;43.84
65989;HTU21D;53592;51.402;6.054;2023-04-26T10:43:28;14.52;43.90
65989;HTU21D;53592;51.402;6.054;2023-04-26T10:45:54;14.41;43.16
65989;HTU21D;53592;51.402;6.054;2023-04-26T10:48:29;14.26;42.96
65989;HTU21D;53592;51.402;6.054;2023-04-26T10:53:28;14.07;43.87
65989;HTU21D;53592;51.402;6.054;2023-04-26T10:55:53;14.00;44.46
65989;HTU21D;53592;51.402;6.054;2023-04-26T10:58:31;13.96;44.00
65989;HTU21D;53592;51.402;6.054;2023-04-26T11:01:15;13.84;42.88
65989;HTU21D;53592;51.402;6.054;2023-04-26T11:03:44;13.74;43.29
65989;HTU21D;53592;51.402;6.054;2023-04-26T11:06:28;13.63;42.84
65989;HTU21D;53592;51.402;6.054;2023-04-26T11:09:34;13.69;43.77
65989;HTU21D;53592;51.402;6.054;2023-04-26T11:12:04;13.66;44.09
65989;HTU21D;53592;51.402;6.054;2023-04-26T11:14:30;13.70;43.48
65989;HTU21D;53592;51.402;6.054;2023-04-26T11:16:55;13.64;42.21
65989;HTU21D;53592;51.402;6.054;2023-04-26T11:19:22;13.64;42.92
65989;HTU21D;53592;51.402;6.054;2023-04-26T11:21:47;13.70;43.49
65989;HTU21D;53592;51.402;6.054;2023-04-26T11:24:16;13.75;42.94
65989;HTU21D;53592;51.402;6.054;2023-04-26T11:26:52;13.83;43.18
65989;HTU21D;53592;51.402;6.054;2023-04-26T11:29:20;13.94;42.71
65989;HTU21D;53592;51.402;6.054;2023-04-26T11:31:52;14.07;42.42
65989;HTU21D;53592;51.402;6.054;2023-04-26T11:34:35;14.08;43.35
65989;HTU21D;53592;51.402;6.054;2023-04-26T11:37:06;14.14;43.97
65989;HTU21D;53592;51.402;6.054;2023-04-26T11:39:34;14.26;43.82
65989;HTU21D;53592;51.402;6.054;2023-04-26T11:42:04;14.32;42.96
65989;HTU21D;53592;51.402;6.054;2023-04-26T11:44:31;14.35;43.67
65989;HTU21D;53592;51.402;6.054;2023-04-26T11:46:57;14.34;42.06
65989;HTU21D;53592;51.402;6.054;2023-04-26T11:49:23;14.17;41.13
65989;HTU21D;53592;51.402;6.054;2023-04-26T11:51:49;14.01;41.93
65989;HTU21D;53592;51.402;6.054;2023-04-26T11:54:35;13.92;42.63
65989;HTU21D;53592;51.402;6.054;2023-04-26T11:57:15;13.76;42.95
65989;HTU21D;53592;51.402;6.054;2023-04-26T11:59:41;13.75;44.12
65989;HTU21D;53592;51.402;6.054;2023-04-26T12:02:08;13.89;44.46
65989;HTU21D;53592;51.402;6.054;2023-04-26T12:04:35;14.00;41.33
65989;HTU21D;53592;51.402;6.054;2023-04-26T12:07:03;13.81;42.49
65989;HTU21D;53592;51.402;6.054;2023-04-26T12:09:30;13.91;43.30
65989;HTU21D;53592;51.402;6.054;2023-04-26T12:12:00;14.00;44.40
65989;HTU21D;53592;51.402;6.054;2023-04-26T12:14:37;14.22;44.35
65989;HTU21D;53592;51.402;6.054;2023-04-26T12:17:04;14.39;43.67
65989;HTU21D;53592;51.402;6.054;2023-04-26T12:19:33;14.48;41.99
65989;HTU21D;53592;51.402;6.054;2023-04-26T12:21:59;14.43;41.89
65989;HTU21D;53592;51.402;6.054;2023-04-26T12:24:27;14.38;42.04
65989;HTU21D;53592;51.402;6.054;2023-04-26T12:27:02;14.52;42.56
65989;HTU21D;53592;51.402;6.054;2023-04-26T12:29:29;14.44;40.43
65989;HTU21D;53592;51.402;6.054;2023-04-26T12:31:57;14.37;40.37
65989;HTU21D;53592;51.402;6.054;2023-04-26T12:34:23;14.35;41.13
65989;HTU21D;53592;51.402;6.054;2023-04-26T12:36:48;14.29;41.33
65989;HTU21D;53592;51.402;6.054;2023-04-26T12:39:14;14.25;41.97
65989;HTU21D;53592;51.402;6.054;2023-04-26T12:41:44;14.26;41.61
65989;HTU21D;53592;51.402;6.054;2023-04-26T12:44:11;14.20;41.76
65989;HTU21D;53592;51.402;6.054;2023-04-26T12:46:37;14.19;41.48
65989;HTU21D;53592;51.402;6.054;2023-04-26T12:49:03;14.17;42.07
65989;HTU21D;53592;51.402;6.054;2023-04-26T12:51:28;14.24;42.30
65989;HTU21D;53592;51.402;6.054;2023-04-26T12:53:54;14.23;41.33
65989;HTU21D;53592;51.402;6.054;2023-04-26T12:56:20;14.23;42.65
65989;HTU21D;53592;51.402;6.054;2023-04-26T12:58:47;14.27;43.43
65989;HTU21D;53592;51.402;6.054;2023-04-26T13:01:12;14.30;43.41
65989;HTU21D;53592;51.402;6.054;2023-04-26T13:03:39;14.35;43.80
65989;HTU21D;53592;51.402;6.054;2023-04-26T13:06:04;14.35;42.89
65989;HTU21D;53592;51.402;6.054;2023-04-26T13:08:30;14.27;42.52
65989;HTU21D;53592;51.402;6.054;2023-04-26T13:10:56;14.23;42.07
65989;HTU21D;53592;51.402;6.054;2023-04-26T13:13:22;14.17;41.58
65989;HTU21D;53592;51.402;6.054;2023-04-26T13:15:48;14.20;42.49
65989;HTU21D;53592;51.402;6.054;2023-04-26T13:18:13;14.27;42.55
65989;HTU21D;53592;51.402;6.054;2023-04-26T13:20:40;14.35;43.79
65989;HTU21D;53592;51.402;6.054;2023-04-26T13:23:05;14.45;43.65
65989;HTU21D;53592;51.402;6.054;2023-04-26T13:25:31;14.54;43.29
65989;HTU21D;53592;51.402;6.054;2023-04-26T13:27:56;14.55;40.68
65989;HTU21D;53592;51.402;6.054;2023-04-26T13:30:22;14.48;39.91
65989;HTU21D;53592;51.402;6.054;2023-04-26T13:32:47;14.36;40.42
65989;HTU21D;53592;51.402;6.054;2023-04-26T13:35:13;14.37;41.30
65989;HTU21D;53592;51.402;6.054;2023-04-26T13:37:39;14.43;42.07
65989;HTU21D;53592;51.402;6.054;2023-04-26T13:40:06;14.43;40.89
65989;HTU21D;53592;51.402;6.054;2023-04-26T13:42:32;14.28;41.97
65989;HTU21D;53592;51.402;6.054;2023-04-26T13:44:58;14.24;41.59
65989;HTU21D;53592;51.402;6.054;2023-04-26T13:47:24;14.23;42.31
65989;HTU21D;53592;51.402;6.054;2023-04-26T13:49:49;14.28;42.91
65989;HTU21D;53592;51.402;6.054;2023-04-26T13:52:15;14.38;42.92
65989;HTU21D;53592;51.402;6.054;2023-04-26T13:54:40;14.43;42.80
65989;HTU21D;53592;51.402;6.054;2023-04-26T13:57:07;14.49;42.97
65989;HTU21D;53592;51.402;6.054;2023-04-26T13:59:32;14.56;42.03
65989;HTU21D;53592;51.402;6.054;2023-04-26T14:01:58;14.60;42.52
65989;HTU21D;53592;51.402;6.054;2023-04-26T14:04:24;14.64;42.90
65989;HTU21D;53592;51.402;6.054;2023-04-26T14:06:49;14.75;42.16
65989;HTU21D;53592;51.402;6.054;2023-04-26T14:09:15;14.82;42.58
65989;HTU21D;53592;51.402;6.054;2023-04-26T14:11:41;14.82;42.66
65989;HTU21D;53592;51.402;6.054;2023-04-26T14:14:07;14.80;41.36
65989;HTU21D;53592;51.402;6.054;2023-04-26T14:16:32;14.78;41.45
65989;HTU21D;53592;51.402;6.054;2023-04-26T14:18:57;14.85;41.92
65989;HTU21D;53592;51.402;6.054;2023-04-26T14:21:23;14.95;40.62
65989;HTU21D;53592;51.402;6.054;2023-04-26T14:23:49;14.89;40.01
65989;HTU21D;53592;51.402;6.054;2023-04-26T14:26:15;14.86;38.75
65989;HTU21D;53592;51.402;6.054;2023-04-26T14:28:41;14.87;39.16
65989;HTU21D;53592;51.402;6.054;2023-04-26T14:31:07;14.79;38.53
65989;HTU21D;53592;51.402;6.054;2023-04-26T14:33:33;14.79;39.27
65989;HTU21D;53592;51.402;6.054;2023-04-26T14:35:58;14.88;40.18
65989;HTU21D;53592;51.402;6.054;2023-04-26T14:38:24;14.92;40.23
65989;HTU21D;53592;51.402;6.054;2023-04-26T14:40:49;14.82;38.95
65989;HTU21D;53592;51.402;6.054;2023-04-26T14:43:15;14.68;38.88
65989;HTU21D;53592;51.402;6.054;2023-04-26T14:45:43;14.69;39.67
65989;HTU21D;53592;51.402;6.054;2023-04-26T14:48:09;14.82;40.55
65989;HTU21D;53592;51.402;6.054;2023-04-26T14:50:36;14.89;40.31
65989;HTU21D;53592;51.402;6.054;2023-04-26T14:53:01;14.92;40.78
65989;HTU21D;53592;51.402;6.054;2023-04-26T14:55:27;14.97;39.20
65989;HTU21D;53592;51.402;6.054;2023-04-26T14:57:52;14.98;38.71
65989;HTU21D;53592;51.402;6.054;2023-04-26T15:00:19;14.88;38.01
65989;HTU21D;53592;51.402;6.054;2023-04-26T15:02:45;14.78;38.04
65989;HTU21D;53592;51.402;6.054;2023-04-26T15:05:11;14.67;39.35
65989;HTU21D;53592;51.402;6.054;2023-04-26T15:07:38;14.66;39.83
65989;HTU21D;53592;51.402;6.054;2023-04-26T15:10:05;14.57;40.65
65989;HTU21D;53592;51.402;6.054;2023-04-26T15:12:32;14.56;41.01
65989;HTU21D;53592;51.402;6.054;2023-04-26T15:14:57;14.51;41.39
65989;HTU21D;53592;51.402;6.054;2023-04-26T15:17:23;14.44;41.21
65989;HTU21D;53592;51.402;6.054;2023-04-26T15:19:48;14.38;41.01
65989;HTU21D;53592;51.402;6.054;2023-04-26T15:22:13;14.17;40.27
65989;HTU21D;53592;51.402;6.054;2023-04-26T15:24:39;14.07;41.75
65989;HTU21D;53592;51.402;6.054;2023-04-26T15:27:04;14.06;41.92
65989;HTU21D;53592;51.402;6.054;2023-04-26T15:29:31;14.08;42.68